EW7580 Weather Reports


time (UTC)temp
F
wind
direction
speed
knots
gust
knots
rain 1hr
in
rain 24hr
in
rain mn
in
humidity
%
barometer
mb
20191017172556 51 253 2.6 6.1 0.00 1.41 1.26 76 978.3
20191017171552 51 225 3.5 6.1 0.00 1.41 1.26 74 978.3
20191017170548 51 252 3.5 6.1 0.00 1.41 1.26 72 978.1
20191017165545 51 225 3.5 7.0 0.00 1.41 1.26 71 978.2
20191017164541 52 229 4.3 7.8 0.00 1.41 1.26 71 978.1
20191017163538 52 259 3.5 8.7 0.00 1.41 1.26 70 978.0
20191017162534 53 224 4.3 9.6 0.00 1.41 1.26 68 977.8
20191017161530 53 234 4.3 8.7 0.00 1.41 1.26 68 977.8
20191017160527 53 294 2.6 5.2 0.00 1.41 1.26 67 977.8
20191017155524 54 248 4.3 7.8 0.00 1.41 1.26 64 977.8
20191017154520 54 217 3.5 13.0 0.00 1.41 1.26 68 977.4
20191017153517 53 300 3.5 8.7 0.00 1.41 1.26 68 977.4
20191017152613 53 262 5.2 11.3 0.00 1.41 1.26 68 977.4
20191017151609 53 233 3.5 6.1 0.00 1.41 1.26 66 977.3
20191017150606 54 261 5.2 11.3 0.00 1.41 1.26 65 977.3
20191017145602 54 307 5.2 9.6 0.00 1.41 1.26 66 977.1
20191017144600 53 239 5.2 10.4 0.00 1.41 1.26 68 977.0
20191017143556 53 243 4.3 11.3 0.00 1.41 1.26 69 976.9
20191017142553 52 223 5.2 12.2 0.00 1.41 1.26 70 977.0
20191017141549 52 170 5.2 10.4 0.00 1.41 1.26 71 976.9
20191017140546 52 223 4.3 7.8 0.00 1.41 1.26 71 976.7
20191017135542 52 228 3.5 10.4 0.00 1.41 1.26 73 976.8
20191017134539 51 276 4.3 10.4 0.00 1.41 1.26 75 976.8
20191017133535 51 189 5.2 10.4 0.00 1.41 1.26 77 976.8
20191017132532 51 230 3.5 6.1 0.00 1.41 1.26 79 976.6
20191017131529 50 233 4.3 9.6 0.00 1.41 1.26 80 976.5
20191017130526 50 196 3.5 7.8 0.00 1.41 1.26 81 976.3
20191017125522 50 195 6.1 11.3 0.00 1.41 1.26 82 976.2
20191017124519 51 218 6.1 12.2 0.00 1.41 1.26 84 975.9
20191017123515 51 209 5.2 9.6 0.00 1.41 1.26 87 975.6
20191017122612 51 219 4.3 11.3 0.00 1.41 1.26 89 975.6
20191017121608 51 199 3.5 7.8 0.00 1.41 1.26 93 975.3
20191017120605 51 186 4.3 7.8 0.00 1.41 1.26 95 974.9
20191017115602 52 249 4.3 7.8 0.00 1.41 1.26 97 974.6
20191017114558 52 227 2.6 5.2 0.00 1.41 1.26 98 974.3
20191017113555 53 175 3.5 5.2 0.01 1.41 1.26 98 974.1
20191017112551 53 226 3.5 11.3 0.01 1.41 1.26 97 973.7
20191017111548 54 217 3.5 5.2 0.01 1.41 1.26 97 973.3
20191017110545 55 226 2.6 4.3 0.01 1.41 1.26 99 973.2
20191017105541 56 222 2.6 7.8 0.01 1.41 1.26 99 972.8
20191017104538 57 225 1.7 4.3 0.01 1.41 1.26 99 972.6
20191017103534 57 204 2.6 6.1 0.00 1.40 1.25 99 972.2
20191017102531 58 209 1.7 3.5 0.00 1.40 1.25 99 972.0
20191017101527 58 218 1.7 3.5 0.00 1.40 1.25 99 971.7
20191017100524 58 200 0.9 2.6 0.00 1.40 1.25 99 971.6
20191017095521 59 248 1.7 7.0 0.00 1.40 1.25 99 971.8
20191017094518 59 199 0.9 5.2 0.00 1.40 1.25 99 972.0
20191017093514 59 211 1.7 5.2 0.00 1.40 1.25 99 972.3
20191017092611 59 315 0.9 2.6 0.00 1.40 1.25 99 972.8
20191017091608 59 167 1.7 7.8 0.00 1.40 1.25 99 972.7
20191017090604 60 223 3.5 7.8 0.00 1.40 1.25 99 973.3
20191017085601 60 171 2.6 5.2 0.00 1.40 1.25 99 973.3
20191017084558 60 179 2.6 5.2 0.01 1.40 1.25 98 973.3
20191017083555 61 129 2.6 9.6 0.02 1.40 1.25 98 973.3
20191017082551 61 83 4.3 9.6 0.03 1.40 1.25 98 973.5
20191017081548 61 153 5.2 16.5 0.08 1.40 1.25 98 973.8
20191017080545 61 285 5.2 13.9 0.11 1.40 1.25 98 973.9
20191017075541 60 64 7.8 22.6 0.14 1.40 1.25 98 974.6
20191017074538 59 94 7.0 19.1 0.20 1.39 1.24 99 974.9
20191017073535 59 139 3.5 11.3 0.22 1.38 1.22 99 975.4
20191017072531 58 150 5.2 11.3 0.31 1.37 1.21 99 976.1
20191017071528 58 78 5.2 16.5 0.38 1.32 1.16 99 977.0
20191017070524 57 65 6.1 13.0 0.42 1.28 1.13 99 977.9
20191017065521 57 227 5.2 19.1 0.44 1.26 1.11 99 977.4
20191017064518 57 204 5.2 11.3 0.44 1.19 1.03 99 977.8
20191017063615 57 17 3.5 9.6 0.43 1.15 1.00 99 979.1
20191017062611 57 111 5.2 11.3 0.40 1.05 0.89 99 980.9
20191017061607 56 197 3.5 13.0 0.33 0.93 0.77 99 982.0
20191017060604 56 118 4.3 13.0 0.30 0.86 0.70 99 982.8
20191017055601 56 171 3.5 8.7 0.30 0.81 0.66 99 984.1
20191017054557 56 97 3.5 8.7 0.27 0.74 0.59 99 985.3
20191017053554 56 86 5.2 18.2 0.31 0.72 0.56 99 986.5
20191017052550 56 107 2.6 10.4 0.33 0.64 0.49 99 987.1
20191017051547 56 224 2.6 7.8 0.35 0.60 0.44 98 988.3
20191017050543 56 146 1.7 5.2 0.37 0.55 0.40 98 989.0
20191017045540 56 89 3.5 10.4 0.35 0.50 0.35 98 989.7
20191017044536 56 139 2.6 9.6 0.33 0.47 0.31 98 990.3
20191017043533 56 148 3.5 9.6 0.27 0.40 0.24 97 990.7
20191017042530 56 147 3.5 14.8 0.21 0.31 0.16 97 991.1
20191017041526 56 17 2.6 10.4 0.16 0.24 0.09 97 991.4
20191017040522 56 77 3.5 16.5 0.12 0.17 0.02 96 992.0
20191017035519 56 139 3.5 7.8 0.10 0.15 0.15 96 992.1
20191017034515 56 63 3.5 10.4 0.10 0.14 0.14 95 992.6
20191017033612 56 168 3.5 10.4 0.10 0.12 0.12 95 993.4
20191017032609 56 227 2.6 7.0 0.09 0.10 0.10 94 994.2
20191017031605 56 154 3.5 8.7 0.08 0.08 0.08 94 995.1
20191017030602 56 130 2.6 6.1 0.04 0.04 0.04 93 996.0
20191017025558 56 168 4.3 7.8 0.04 0.04 0.04 93 996.6
20191017024555 56 176 4.3 10.4 0.03 0.03 0.03 92 997.1
20191017023551 56 140 2.6 7.8 0.02 0.02 0.02 91 997.7
20191017022548 56 51 2.6 8.7 0.01 0.01 0.01 90 998.3
20191017021545 57 152 3.5 10.4 0.00 0.00 0.00 90 998.8
20191017020541 57 262 3.5 8.7 0.00 0.00 0.00 88 999.1
20191017015537 57 180 2.6 7.0 0.00 0.00 0.00 88 999.7
20191017014534 57 158 4.3 10.4 0.00 0.00 0.00 88 1000.2
20191017013531 57 130 3.5 12.2 0.00 0.00 0.00 87 1000.6
20191017012527 57 11 2.6 6.1 0.00 0.00 0.00 87 1000.8
20191017011524 57 156 2.6 6.1 0.00 0.00 0.00 88 1001.3
20191017010520 56 143 2.6 7.8 0.00 0.00 0.00 87 1001.5
20191017005517 56 189 1.7 7.0 0.00 0.00 0.00 87 1001.9
20191017004614 56 26 1.7 6.1 0.00 0.00 0.00 87 1002.5
20191017003611 56 140 1.7 7.8 0.00 0.00 0.00 86 1002.7
20191017002607 56 87 1.7 7.0 0.00 0.00 0.00 85 1003.1
20191017001604 56 349 1.7 5.2 0.00 0.00 0.00 84 1003.5
20191017000600 56 121 3.5 5.2 0.00 0.00 0.00 84 1003.6
20191016235557 55 102 1.7 5.2 0.00 0.00 0.00 83 1003.9
20191016234553 55 170 1.7 4.3 0.00 0.00 0.00 83 1004.3
20191016233550 55 284 1.7 7.8 0.00 0.00 0.00 83 1004.3
20191016232547 55 114 2.6 5.2 0.00 0.00 0.00 84 1004.5
20191016231543 55 80 1.7 7.0 0.00 0.00 0.00 84 1004.7
20191016230542 55 97 1.7 3.5 0.00 0.00 0.00 84 1005.1
20191016225537 55 123 0.9 5.2 0.00 0.00 0.00 84 1005.2
20191016224533 55 136 0.9 2.6 0.00 0.00 0.00 83 1005.8
20191016223530 55 142 0.9 2.6 0.00 0.00 0.00 83 1006.0
20191016222526 55 191 0.0 2.6 0.00 0.00 0.00 83 1006.3
20191016221523 55 344 0.9 3.5 0.00 0.00 0.00 82 1006.5
20191016220520 55 187 0.9 2.6 0.00 0.00 0.00 81 1006.8
20191016215517 55 135 1.7 7.8 0.00 0.00 0.00 80 1006.8
20191016214613 55 264 1.7 2.6 0.00 0.00 0.00 78 1007.1
20191016213610 55 94 0.9 4.3 0.00 0.00 0.00 78 1007.4
20191016212606 55 174 2.6 7.0 0.00 0.00 0.00 77 1007.5
20191016211604 55 160 1.7 7.8 0.00 0.00 0.00 76 1007.5
20191016210601 55 104 1.7 7.8 0.00 0.00 0.00 75 1007.8
20191016205556 55 154 0.9 7.8 0.00 0.00 0.00 75 1008.2
20191016204553 56 175 1.7 6.1 0.00 0.00 0.00 74 1008.5
20191016203550 56 73 1.7 3.5 0.00 0.00 0.00 73 1008.5
20191016202546 56 169 2.6 7.0 0.00 0.00 0.00 73 1009.0
20191016201543 56 354 0.9 4.3 0.00 0.00 0.00 72 1009.1
20191016200539 56 162 0.9 4.3 0.00 0.00 0.00 72 1009.2
20191016195536 56 146 0.9 7.0 0.00 0.00 0.00 71 1009.4
20191016194532 57 182 2.6 7.8 0.00 0.00 0.00 70 1009.5
20191016193529 57 141 1.7 5.2 0.00 0.00 0.00 67 1009.7
20191016192526 57 92 1.7 7.8 0.00 0.00 0.00 68 1009.9
20191016191523 57 236 1.7 5.2 0.00 0.00 0.00 67 1009.9
20191016190519 57 156 2.6 5.2 0.00 0.00 0.00 66 1010.2
20191016185516 57 155 0.9 3.5 0.00 0.00 0.00 65 1010.5
20191016184613 58 193 0.9 4.3 0.00 0.00 0.00 64 1010.6
20191016183610 58 209 1.7 5.2 0.00 0.00 0.00 63 1010.6
20191016182607 58 173 0.9 3.5 0.00 0.00 0.00 63 1011.0
20191016181603 58 93 1.7 7.0 0.00 0.00 0.00 62 1011.1
20191016180600 58 332 0.9 2.6 0.00 0.00 0.00 62 1011.2
20191016175557 59 149 2.6 7.8 0.00 0.00 0.00 61 1011.3
20191016174553 59 264 0.9 2.6 0.00 0.00 0.00 60 1011.5
20191016173550 59 122 1.7 5.2 0.00 0.00 0.00 61 1011.5